createdAt,value
2023-03-27T00:01:18.348Z,13.50
2023-03-27T00:03:49.825Z,13.49
2023-03-27T00:06:20.926Z,13.50
2023-03-27T00:08:51.282Z,13.46
2023-03-27T00:11:20.598Z,13.48
2023-03-27T00:13:51.283Z,12.93
2023-03-27T00:16:20.349Z,13.44
2023-03-27T00:18:48.996Z,13.38
2023-03-27T00:21:17.356Z,13.33
2023-03-27T00:23:47.094Z,13.42
2023-03-27T00:26:15.523Z,13.41
2023-03-27T00:28:43.941Z,13.31
2023-03-27T00:31:13.698Z,13.16
2023-03-27T00:33:42.574Z,13.08
2023-03-27T00:36:12.224Z,13.00
2023-03-27T00:38:40.800Z,13.09
2023-03-27T00:41:10.636Z,12.64
2023-03-27T00:43:44.298Z,12.67
2023-03-27T00:46:31.818Z,12.60
2023-03-27T00:49:02.984Z,12.71
2023-03-27T00:51:32.503Z,12.63
2023-03-27T00:54:01.532Z,12.54
2023-03-27T00:56:33.907Z,12.54
2023-03-27T00:59:04.938Z,12.57
2023-03-27T01:01:33.613Z,12.50
2023-03-27T01:04:05.766Z,12.43
2023-03-27T01:06:34.749Z,12.16
2023-03-27T01:09:04.761Z,12.34
2023-03-27T01:11:44.866Z,12.29
2023-03-27T01:14:22.482Z,12.02
2023-03-27T01:17:08.518Z,11.80
2023-03-27T01:19:59.511Z,11.26
2023-03-27T01:22:58.385Z,11.73
2023-03-27T01:25:52.030Z,11.26
2023-03-27T01:28:37.084Z,11.77
2023-03-27T01:31:24.516Z,11.75
2023-03-27T01:34:09.989Z,11.87
2023-03-27T01:37:00.968Z,11.60
2023-03-27T01:39:36.534Z,11.75
2023-03-27T01:42:10.055Z,11.69
2023-03-27T01:44:47.221Z,11.71
2023-03-27T01:47:24.487Z,11.44
2023-03-27T01:49:58.275Z,11.41
2023-03-27T01:52:32.734Z,11.40
2023-03-27T01:55:09.903Z,11.34
2023-03-27T01:57:50.454Z,11.27
2023-03-27T02:00:22.628Z,11.10
2023-03-27T02:02:57.204Z,11.23
2023-03-27T02:05:31.954Z,11.17
2023-03-27T02:08:07.694Z,11.17
2023-03-27T02:10:42.343Z,11.10
2023-03-27T02:13:18.380Z,10.88
2023-03-27T02:15:49.472Z,10.82
2023-03-27T02:18:23.774Z,10.73
2023-03-27T02:20:52.056Z,10.92
2023-03-27T02:23:23.152Z,10.80
2023-03-27T02:25:54.495Z,10.86
2023-03-27T02:28:48.765Z,10.89
2023-03-27T02:31:34.886Z,10.70
2023-03-27T02:34:29.170Z,10.87
2023-03-27T02:37:02.540Z,10.88
2023-03-27T02:39:39.204Z,10.36
2023-03-27T02:42:14.092Z,10.55
2023-03-27T02:44:51.794Z,10.81
2023-03-27T02:47:27.874Z,10.78
2023-03-27T02:50:01.966Z,10.73
2023-03-27T02:52:35.102Z,10.66
2023-03-27T02:55:07.509Z,10.60
2023-03-27T02:57:39.999Z,10.37
2023-03-27T03:00:25.546Z,10.47
2023-03-27T03:03:00.354Z,10.53
2023-03-27T03:05:28.825Z,10.54
2023-03-27T03:07:58.397Z,10.45
2023-03-27T03:10:28.090Z,10.34
2023-03-27T03:12:57.893Z,10.32
2023-03-27T03:15:26.228Z,10.32
2023-03-27T03:17:54.983Z,10.15
2023-03-27T03:20:24.231Z,10.30
2023-03-27T03:22:52.730Z,10.29
2023-03-27T03:25:21.091Z,10.37
2023-03-27T03:27:49.462Z,10.02
2023-03-27T03:30:19.515Z,10.30
2023-03-27T03:32:48.250Z,10.22
2023-03-27T03:35:16.666Z,10.20
2023-03-27T03:37:50.691Z,8.94
2023-03-27T03:40:21.233Z,9.56
2023-03-27T03:42:51.134Z,9.94
2023-03-27T03:45:21.569Z,9.44
2023-03-27T03:47:49.976Z,9.38
2023-03-27T03:50:18.567Z,9.27
2023-03-27T03:52:47.361Z,9.22
2023-03-27T03:55:16.316Z,9.03
2023-03-27T03:57:48.564Z,9.36
2023-03-27T04:00:18.901Z,9.36
2023-03-27T04:02:52.202Z,9.35
2023-03-27T04:05:20.846Z,9.54
2023-03-27T04:07:49.985Z,9.52
2023-03-27T04:10:18.984Z,9.55
2023-03-27T04:12:51.438Z,9.65
2023-03-27T04:15:19.973Z,9.93
2023-03-27T04:17:49.966Z,9.59
2023-03-27T04:20:19.501Z,9.12
2023-03-27T04:22:51.412Z,9.02
2023-03-27T04:25:23.486Z,9.05
2023-03-27T04:27:52.630Z,9.46
2023-03-27T04:30:23.678Z,9.61
2023-03-27T04:32:54.230Z,9.93
2023-03-27T04:35:23.601Z,9.68
2023-03-27T04:37:53.021Z,9.75
2023-03-27T04:40:21.384Z,9.44
2023-03-27T04:42:50.515Z,9.15
2023-03-27T04:45:22.589Z,9.72
2023-03-27T04:47:52.423Z,10.15
2023-03-27T04:50:20.860Z,10.19
2023-03-27T04:52:50.544Z,10.02
2023-03-27T04:55:19.860Z,10.08
2023-03-27T04:57:48.507Z,9.92
2023-03-27T05:00:19.154Z,9.28
2023-03-27T05:02:48.692Z,9.29
2023-03-27T05:05:19.596Z,9.49
2023-03-27T05:07:48.763Z,9.63
2023-03-27T05:10:21.913Z,9.85
2023-03-27T05:12:52.786Z,9.41
2023-03-27T05:15:22.395Z,9.64
2023-03-27T05:17:54.530Z,10.02
2023-03-27T05:20:24.411Z,9.90
2023-03-27T05:22:54.943Z,10.16
2023-03-27T05:25:24.683Z,9.28
2023-03-27T05:28:11.501Z,9.83
2023-03-27T05:30:39.883Z,8.82
2023-03-27T05:33:08.250Z,9.01
2023-03-27T05:35:38.027Z,8.91
2023-03-27T05:38:06.671Z,9.37
2023-03-27T05:40:35.862Z,9.62
2023-03-27T05:43:04.102Z,10.14
2023-03-27T05:45:32.680Z,10.40
2023-03-27T05:48:02.918Z,10.57
2023-03-27T05:50:33.702Z,10.93
2023-03-27T05:53:05.627Z,11.29
2023-03-27T05:55:34.040Z,11.58
2023-03-27T05:58:02.366Z,11.42
2023-03-27T06:00:34.258Z,12.08
2023-03-27T06:03:04.309Z,12.68
2023-03-27T06:05:32.766Z,12.88
2023-03-27T06:08:02.235Z,13.48
2023-03-27T06:10:33.966Z,13.69
2023-03-27T06:13:03.996Z,13.96
2023-03-27T06:15:33.117Z,13.55
2023-03-27T06:18:01.454Z,13.43
2023-03-27T06:20:29.963Z,14.27
2023-03-27T06:23:00.108Z,14.88
2023-03-27T06:25:32.238Z,14.92
2023-03-27T06:28:04.680Z,15.33
2023-03-27T06:30:33.045Z,15.93
2023-03-27T06:33:03.154Z,16.80
2023-03-27T06:35:33.753Z,16.82
2023-03-27T06:38:03.630Z,17.86
2023-03-27T06:40:35.551Z,18.20
2023-03-27T06:43:07.028Z,18.42
2023-03-27T06:45:38.202Z,18.66
2023-03-27T06:48:17.282Z,18.70
2023-03-27T06:50:49.455Z,18.84
2023-03-27T06:55:49.612Z,18.87
2023-03-27T06:58:19.825Z,19.96
2023-03-27T07:00:49.904Z,19.84
2023-03-27T07:03:19.281Z,19.98
2023-03-27T07:05:49.176Z,20.21
2023-03-27T07:08:24.094Z,20.37
2023-03-27T07:11:08.055Z,21.02
2023-03-27T07:13:42.621Z,21.77
2023-03-27T07:16:12.543Z,21.47
2023-03-27T07:18:42.102Z,21.17
2023-03-27T07:21:13.025Z,20.34
2023-03-27T07:23:41.518Z,20.82
2023-03-27T07:26:09.898Z,20.59
2023-03-27T07:28:38.831Z,20.70
2023-03-27T07:31:29.897Z,21.36
2023-03-27T07:34:02.147Z,19.75
2023-03-27T07:36:30.806Z,19.45
2023-03-27T07:38:59.117Z,19.81
2023-03-27T07:41:30.163Z,19.28
2023-03-27T07:43:58.712Z,19.04
2023-03-27T07:46:28.580Z,20.27
2023-03-27T07:48:57.656Z,20.25
2023-03-27T07:51:25.948Z,19.50
2023-03-27T07:53:58.595Z,19.56
2023-03-27T07:56:28.264Z,20.68
2023-03-27T07:58:56.549Z,20.04
2023-03-27T08:01:26.058Z,21.68
2023-03-27T08:03:55.944Z,20.75
2023-03-27T08:06:24.552Z,19.86
2023-03-27T08:08:52.908Z,20.09
2023-03-27T08:11:30.268Z,20.81
2023-03-27T08:13:59.718Z,19.46
2023-03-27T08:16:29.988Z,20.01
2023-03-27T08:19:01.490Z,19.85
2023-03-27T08:21:33.412Z,20.76
2023-03-27T08:24:03.592Z,20.13
2023-03-27T08:26:32.392Z,20.43
2023-03-27T08:29:00.918Z,20.14
2023-03-27T08:31:31.290Z,19.37
2023-03-27T08:34:01.140Z,21.00
2023-03-27T08:36:29.546Z,21.55
2023-03-27T08:38:58.406Z,19.78
2023-03-27T08:41:31.143Z,19.64
2023-03-27T08:44:04.246Z,19.11
2023-03-27T08:46:38.992Z,20.16
2023-03-27T08:49:15.196Z,20.02
2023-03-27T08:51:48.321Z,20.69
2023-03-27T08:54:19.790Z,21.37
2023-03-27T08:56:49.125Z,20.42
2023-03-27T08:59:20.933Z,19.76
2023-03-27T09:01:55.915Z,20.35
2023-03-27T09:04:37.523Z,20.24
2023-03-27T09:07:12.812Z,20.24
2023-03-27T09:09:48.850Z,19.98
2023-03-27T09:12:29.135Z,19.54
2023-03-27T09:15:02.189Z,19.83
2023-03-27T09:17:35.918Z,19.75
2023-03-27T09:20:17.993Z,19.48
2023-03-27T09:22:52.920Z,19.56
2023-03-27T09:25:25.527Z,19.56
2023-03-27T09:27:54.311Z,19.21
2023-03-27T09:30:27.698Z,18.53
2023-03-27T09:32:59.660Z,18.26
2023-03-27T09:35:29.633Z,18.45
2023-03-27T09:38:03.864Z,18.48
2023-03-27T09:40:47.682Z,18.82
2023-03-27T09:43:20.489Z,18.75
2023-03-27T09:45:53.029Z,19.24
2023-03-27T09:48:32.544Z,19.38
2023-03-27T09:51:02.582Z,19.29
2023-03-27T09:53:31.034Z,19.45
2023-03-27T09:56:03.327Z,19.39
2023-03-27T09:58:36.414Z,19.60
2023-03-27T10:01:17.671Z,19.39
2023-03-27T10:03:51.980Z,19.02
2023-03-27T10:06:30.337Z,19.29
2023-03-27T10:09:01.516Z,19.79
2023-03-27T10:11:34.096Z,19.95
2023-03-27T10:14:11.175Z,19.42
2023-03-27T10:16:42.460Z,19.44
2023-03-27T10:19:23.765Z,19.94
2023-03-27T10:21:55.073Z,20.38
2023-03-27T10:24:31.947Z,19.72
2023-03-27T10:27:01.510Z,20.18
2023-03-27T10:29:34.920Z,19.91
2023-03-27T10:32:05.381Z,19.61
2023-03-27T10:34:36.753Z,19.62
2023-03-27T10:37:21.051Z,19.62
2023-03-27T10:39:49.599Z,19.91
2023-03-27T10:42:18.828Z,19.85
2023-03-27T10:44:49.984Z,18.60
2023-03-27T10:47:21.102Z,18.87
2023-03-27T10:49:57.273Z,18.82
2023-03-27T10:52:34.969Z,19.10
2023-03-27T10:55:16.151Z,18.65
2023-03-27T10:57:49.961Z,18.31
2023-03-27T11:00:24.527Z,18.14
2023-03-27T11:03:00.291Z,18.02
2023-03-27T11:05:36.146Z,17.86
2023-03-27T11:08:12.443Z,17.63
2023-03-27T11:10:43.034Z,17.40
2023-03-27T11:13:16.496Z,17.88
2023-03-27T11:15:49.724Z,17.47
2023-03-27T11:18:23.503Z,17.84
2023-03-27T11:20:56.680Z,18.05
2023-03-27T11:23:32.265Z,17.78
2023-03-27T11:26:04.220Z,17.84
2023-03-27T11:28:43.063Z,17.85
2023-03-27T11:31:21.407Z,17.66
2023-03-27T11:33:53.680Z,17.80
2023-03-27T11:36:34.300Z,17.90
2023-03-27T11:39:17.008Z,17.92
2023-03-27T11:41:52.216Z,17.57
2023-03-27T11:44:21.038Z,17.46
2023-03-27T11:47:15.285Z,17.62
2023-03-27T11:49:59.941Z,18.38
2023-03-27T11:52:41.213Z,18.92
2023-03-27T11:55:24.830Z,18.45
2023-03-27T11:58:08.862Z,18.41
2023-03-27T12:00:42.824Z,18.43
2023-03-27T12:03:28.580Z,18.06
2023-03-27T12:06:08.154Z,17.92
2023-03-27T12:08:51.930Z,17.77
2023-03-27T12:11:26.120Z,17.32
2023-03-27T12:14:18.530Z,17.73
2023-03-27T12:17:01.497Z,17.46
2023-03-27T12:19:53.079Z,17.26
2023-03-27T12:22:31.599Z,17.15
2023-03-27T12:25:17.552Z,17.19
2023-03-27T12:27:58.076Z,16.90
2023-03-27T12:30:38.370Z,17.17
2023-03-27T12:33:30.492Z,16.91
2023-03-27T12:36:02.778Z,17.10
2023-03-27T12:38:35.043Z,16.72
2023-03-27T12:41:13.762Z,16.83
2023-03-27T12:43:49.297Z,16.81
2023-03-27T12:46:33.014Z,16.79
2023-03-27T12:49:05.505Z,16.65
2023-03-27T12:51:39.904Z,16.11
2023-03-27T12:54:25.128Z,15.78
2023-03-27T12:57:05.207Z,15.79
2023-03-27T12:59:39.308Z,15.87
2023-03-27T13:02:44.474Z,16.43
2023-03-27T13:05:50.886Z,16.14
2023-03-27T13:08:51.162Z,16.28
2023-03-27T13:11:32.486Z,15.70
2023-03-27T13:14:24.867Z,13.75
2023-03-27T13:17:04.221Z,12.60
2023-03-27T13:19:45.489Z,12.85
2023-03-27T13:22:26.315Z,12.77
2023-03-27T13:25:13.545Z,12.66
2023-03-27T13:28:15.321Z,12.84
2023-03-27T13:30:47.853Z,12.60
2023-03-27T13:33:25.339Z,12.77
2023-03-27T13:36:05.568Z,12.74
2023-03-27T13:39:14.031Z,12.53
2023-03-27T13:42:02.386Z,11.83
2023-03-27T13:44:42.853Z,12.29
2023-03-27T13:47:38.388Z,12.27
2023-03-27T13:50:27.345Z,12.10
2023-03-27T13:53:23.910Z,11.61
2023-03-27T13:56:07.386Z,11.11
2023-03-27T13:58:51.725Z,11.06
2023-03-27T14:01:35.203Z,11.21
2023-03-27T14:04:25.756Z,10.94
2023-03-27T14:07:25.794Z,11.04
2023-03-27T14:10:11.546Z,10.12
2023-03-27T14:12:54.914Z,10.31
2023-03-27T14:15:47.176Z,10.35
2023-03-27T14:18:41.792Z,11.02
2023-03-27T14:21:13.342Z,11.19
2023-03-27T14:23:49.377Z,11.16
2023-03-27T14:26:24.721Z,11.49
2023-03-27T14:28:55.175Z,11.61
2023-03-27T14:31:26.913Z,11.33
2023-03-27T14:34:01.519Z,10.93
2023-03-27T14:36:34.049Z,11.52
2023-03-27T14:39:08.524Z,11.96
2023-03-27T14:41:45.814Z,11.37
2023-03-27T14:44:14.357Z,10.88
2023-03-27T14:46:48.225Z,10.69
2023-03-27T14:49:21.070Z,10.85
2023-03-27T14:51:54.186Z,11.17
2023-03-27T14:54:29.039Z,11.08
2023-03-27T14:57:00.585Z,11.61
2023-03-27T14:59:35.085Z,11.70
2023-03-27T15:02:07.469Z,12.09
2023-03-27T15:04:38.309Z,11.90
2023-03-27T15:07:14.461Z,11.21
2023-03-27T15:09:44.115Z,11.43
2023-03-27T15:12:12.780Z,11.23
2023-03-27T15:14:41.731Z,11.15
2023-03-27T15:17:16.080Z,12.01
2023-03-27T15:19:49.141Z,12.13
2023-03-27T15:22:23.939Z,11.91
2023-03-27T15:24:57.357Z,11.95
2023-03-27T15:27:31.001Z,11.86
2023-03-27T15:30:01.929Z,12.26
2023-03-27T15:32:42.612Z,12.66
2023-03-27T15:35:18.137Z,13.19
2023-03-27T15:37:47.106Z,13.13
2023-03-27T15:40:43.078Z,12.85
2023-03-27T15:43:25.856Z,12.34
2023-03-27T15:46:15.090Z,12.50
2023-03-27T15:48:46.259Z,12.66
2023-03-27T15:51:28.760Z,12.05
2023-03-27T15:53:57.374Z,11.82
2023-03-27T15:56:30.430Z,11.50
2023-03-27T15:59:01.018Z,11.35
2023-03-27T16:01:32.363Z,11.57
2023-03-27T16:04:05.508Z,12.03
2023-03-27T16:06:37.689Z,12.20
2023-03-27T16:09:18.114Z,12.17
2023-03-27T16:11:49.511Z,12.24
2023-03-27T16:14:28.140Z,11.48
2023-03-27T16:17:12.095Z,11.92
2023-03-27T16:19:45.069Z,11.43
2023-03-27T16:22:13.430Z,11.77
2023-03-27T16:24:41.922Z,11.90
2023-03-27T16:27:13.081Z,11.69
2023-03-27T16:29:41.367Z,11.57
2023-03-27T16:32:13.833Z,11.60
2023-03-27T16:34:42.147Z,11.19
2023-03-27T16:37:10.453Z,11.38
2023-03-27T16:39:38.801Z,11.58
2023-03-27T16:42:07.213Z,11.53
2023-03-27T16:44:36.956Z,11.98
2023-03-27T16:47:05.355Z,11.79
2023-03-27T16:49:33.674Z,11.85
2023-03-27T16:52:02.158Z,11.69
2023-03-27T16:54:30.551Z,11.80
2023-03-27T16:56:58.892Z,11.80
2023-03-27T16:59:28.398Z,11.36
2023-03-27T17:01:58.078Z,11.06
2023-03-27T17:04:27.248Z,10.84
2023-03-27T17:06:56.120Z,11.37
2023-03-27T17:09:24.705Z,11.19
2023-03-27T17:11:52.903Z,11.30
2023-03-27T17:14:21.208Z,10.65
2023-03-27T17:16:49.860Z,11.10
2023-03-27T17:19:20.095Z,11.34
2023-03-27T17:21:48.442Z,11.35
2023-03-27T17:24:17.554Z,11.46
2023-03-27T17:26:45.922Z,11.47
2023-03-27T17:29:14.290Z,11.36
2023-03-27T17:31:42.567Z,11.20
2023-03-27T17:34:10.949Z,11.00
2023-03-27T17:36:47.213Z,11.16
2023-03-27T17:39:18.568Z,10.87
2023-03-27T17:41:47.068Z,10.84
2023-03-27T17:44:16.213Z,10.92
2023-03-27T17:46:44.593Z,10.97
2023-03-27T17:49:13.277Z,11.40
2023-03-27T17:51:43.397Z,11.52
2023-03-27T17:54:12.222Z,11.82
2023-03-27T17:56:41.171Z,11.51
2023-03-27T17:59:10.347Z,10.51
2023-03-27T18:01:38.965Z,10.81
2023-03-27T18:04:07.503Z,10.99
2023-03-27T18:06:36.732Z,10.73
2023-03-27T18:09:07.557Z,11.02
2023-03-27T18:11:35.896Z,11.41
2023-03-27T18:14:04.197Z,11.30
2023-03-27T18:16:32.572Z,11.46
2023-03-27T18:19:01.143Z,11.35
2023-03-27T18:21:29.508Z,11.12
2023-03-27T18:23:59.748Z,10.72
2023-03-27T18:26:29.516Z,10.26
2023-03-27T18:28:58.144Z,10.44
2023-03-27T18:31:26.743Z,10.70
2023-03-27T18:33:55.179Z,10.67
2023-03-27T18:36:23.506Z,11.11
2023-03-27T18:38:52.198Z,10.81
2023-03-27T18:41:20.586Z,11.11
2023-03-27T18:43:50.342Z,10.94
2023-03-27T18:46:18.751Z,11.31
2023-03-27T18:48:49.262Z,11.39
2023-03-27T18:51:18.846Z,11.31
2023-03-27T18:53:47.396Z,11.06
2023-03-27T18:56:16.823Z,10.68
2023-03-27T18:58:45.102Z,10.66
2023-03-27T19:01:14.766Z,10.45
2023-03-27T19:03:43.666Z,9.87
2023-03-27T19:06:13.395Z,8.85
2023-03-27T19:08:43.270Z,10.23
2023-03-27T19:11:11.899Z,10.51
2023-03-27T19:13:40.218Z,10.42
2023-03-27T19:16:14.332Z,10.66
2023-03-27T19:18:45.114Z,10.70
2023-03-27T19:21:13.480Z,10.69
2023-03-27T19:23:41.909Z,10.70
2023-03-27T19:26:11.722Z,10.16
2023-03-27T19:28:40.514Z,9.85
2023-03-27T19:31:09.697Z,9.81
2023-03-27T19:33:38.389Z,10.11
2023-03-27T19:36:09.341Z,10.04
2023-03-27T19:38:38.722Z,10.37
2023-03-27T19:41:09.800Z,10.34
2023-03-27T19:43:38.515Z,10.23
2023-03-27T19:46:15.796Z,10.49
2023-03-27T19:48:45.491Z,10.90
2023-03-27T19:51:15.155Z,10.79
2023-03-27T19:53:43.546Z,10.85
2023-03-27T19:56:12.042Z,10.85
2023-03-27T19:58:40.466Z,10.85
2023-03-27T20:01:09.266Z,10.97
2023-03-27T20:03:38.723Z,10.95
2023-03-27T20:06:12.946Z,10.84
2023-03-27T20:08:44.191Z,11.04
2023-03-27T20:11:12.643Z,11.04
2023-03-27T20:13:53.062Z,10.72
2023-03-27T20:16:23.551Z,10.97
2023-03-27T20:18:55.466Z,10.05
2023-03-27T20:21:25.800Z,9.38
2023-03-27T20:23:55.846Z,9.36
2023-03-27T20:26:25.172Z,10.06
2023-03-27T20:28:53.889Z,10.54
2023-03-27T20:31:22.898Z,10.15
2023-03-27T20:33:53.327Z,10.82
2023-03-27T20:36:23.334Z,10.95
2023-03-27T20:38:52.970Z,10.96
2023-03-27T20:41:22.721Z,11.16
2023-03-27T20:43:51.146Z,10.85
2023-03-27T20:46:19.495Z,10.51
2023-03-27T20:48:53.649Z,10.46
2023-03-27T20:51:24.676Z,10.04
2023-03-27T20:53:55.976Z,10.44
2023-03-27T20:56:26.466Z,10.94
2023-03-27T20:58:54.801Z,10.87
2023-03-27T21:01:27.940Z,10.90
2023-03-27T21:03:58.352Z,10.07
2023-03-27T21:06:26.967Z,10.10
2023-03-27T21:08:55.493Z,10.23
2023-03-27T21:11:25.172Z,10.53
2023-03-27T21:13:53.547Z,9.96
2023-03-27T21:16:21.882Z,9.84
2023-03-27T21:18:50.318Z,9.95
2023-03-27T21:21:18.653Z,9.86
2023-03-27T21:23:48.287Z,9.41
2023-03-27T21:26:16.737Z,8.94
2023-03-27T21:28:46.400Z,8.65
2023-03-27T21:31:14.661Z,9.24
2023-03-27T21:33:42.904Z,9.63
2023-03-27T21:36:13.099Z,9.52
2023-03-27T21:38:41.552Z,9.53
2023-03-27T21:41:11.716Z,9.16
2023-03-27T21:43:40.121Z,9.82
2023-03-27T21:46:09.918Z,9.58
2023-03-27T21:48:40.610Z,9.76
2023-03-27T21:51:09.580Z,9.98
2023-03-27T21:53:38.316Z,10.43
2023-03-27T21:56:07.388Z,10.76
2023-03-27T21:58:35.741Z,11.03
2023-03-27T22:01:04.319Z,10.30
2023-03-27T22:03:34.030Z,11.01
2023-03-27T22:06:11.500Z,10.40
2023-03-27T22:08:42.952Z,10.39
2023-03-27T22:11:12.546Z,10.45
2023-03-27T22:13:43.484Z,9.56
2023-03-27T22:16:13.941Z,9.09
2023-03-27T22:18:44.204Z,8.71
2023-03-27T22:21:14.732Z,9.19
2023-03-27T22:23:43.061Z,9.83
2023-03-27T22:26:12.014Z,10.05
2023-03-27T22:28:40.377Z,10.05
2023-03-27T22:31:08.958Z,9.89
2023-03-27T22:33:37.861Z,9.55
2023-03-27T22:36:11.854Z,10.04
2023-03-27T22:38:41.364Z,10.24
2023-03-27T22:41:11.207Z,10.40
2023-03-27T22:43:39.951Z,10.26
2023-03-27T22:46:10.127Z,10.68
2023-03-27T22:48:38.698Z,11.06
2023-03-27T22:51:09.922Z,10.27
2023-03-27T22:53:38.564Z,9.50
2023-03-27T22:56:08.739Z,9.56
2023-03-27T22:58:37.082Z,10.07
2023-03-27T23:01:06.637Z,9.40
2023-03-27T23:03:34.950Z,9.97
2023-03-27T23:06:03.325Z,10.24
2023-03-27T23:08:33.055Z,10.52
2023-03-27T23:11:03.474Z,10.10
2023-03-27T23:13:34.360Z,10.69
2023-03-27T23:16:02.891Z,10.22
2023-03-27T23:18:31.476Z,9.75
2023-03-27T23:21:01.877Z,10.04
2023-03-27T23:23:33.064Z,9.77
2023-03-27T23:26:01.756Z,8.21
2023-03-27T23:28:32.937Z,9.31
2023-03-27T23:31:03.447Z,9.79
2023-03-27T23:33:36.817Z,9.40
2023-03-27T23:36:07.844Z,9.68
2023-03-27T23:38:37.868Z,9.85
2023-03-27T23:41:07.744Z,9.60
2023-03-27T23:43:36.476Z,9.87
2023-03-27T23:46:08.763Z,9.70
2023-03-27T23:48:37.570Z,9.30
2023-03-27T23:51:06.733Z,10.04
2023-03-27T23:53:36.404Z,9.82
2023-03-27T23:56:07.286Z,9.87
2023-03-27T23:58:37.380Z,10.03
